Time;durP1;ratioP1;P1;durP2;ratioP2;P2;SDS_P1;SDS_P2;PMS_P1;PMS_P2;Temp;Humidity;BMP_temperature;BMP_pressure;BME280_temperature;BME280_humidity;BME280_pressure;Samples;Min_cycle;Max_cycle;Signal;HPM_P1;HPM_P2
2022/06/27 06:54:01;;;;;;;17.73;15.73;;;17.70;99.90;;;;;;5090902;27;20548;-75
2022/06/27 06:56:28;;;;;;;16.20;14.23;;;17.70;99.90;;;;;;5089641;28;20171;-76
2022/06/27 06:58:54;;;;;;;18.23;14.43;;;17.80;99.90;;;;;;5090858;28;20652;-76
2022/06/27 07:01:20;;;;;;;17.83;14.95;;;17.80;99.90;;;;;;5090809;28;20660;-76
2022/06/27 07:03:47;;;;;;;19.38;14.63;;;17.90;99.90;;;;;;5089426;28;20206;-76
2022/06/27 07:06:13;;;;;;;22.13;15.98;;;17.80;99.90;;;;;;5090602;28;20217;-76
2022/06/27 07:08:40;;;;;;;17.42;14.68;;;17.90;99.90;;;;;;5090625;28;20244;-76
2022/06/27 07:11:06;;;;;;;22.70;15.23;;;18.00;99.90;;;;;;5090522;28;20274;-76
2022/06/27 07:13:32;;;;;;;19.02;15.23;;;17.90;99.90;;;;;;5090281;28;20256;-76
2022/06/27 07:15:58;;;;;;;17.98;15.70;;;17.80;99.90;;;;;;5090442;28;20163;-76
2022/06/27 07:18:25;;;;;;;17.13;14.75;;;17.80;99.90;;;;;;5090390;28;20159;-76
2022/06/27 07:20:52;;;;;;;18.40;15.00;;;17.80;99.90;;;;;;5090397;28;20547;-76
2022/06/27 07:23:19;;;;;;;16.60;14.82;;;17.80;99.90;;;;;;5090420;28;20171;-76
2022/06/27 07:25:45;;;;;;;19.98;15.32;;;17.80;99.90;;;;;;5090251;28;20190;-76
2022/06/27 07:28:10;;;;;;;17.65;15.82;;;17.80;99.90;;;;;;5088964;28;20175;-76
2022/06/27 07:30:36;;;;;;;17.52;15.82;;;17.80;99.90;;;;;;5088945;28;20167;-76
2022/06/27 07:33:02;;;;;;;17.63;15.05;;;17.70;99.90;;;;;;5090001;28;20210;-76
2022/06/27 07:35:29;;;;;;;16.67;14.88;;;17.70;99.90;;;;;;5090155;28;20175;-76
2022/06/27 07:37:54;;;;;;;16.55;14.85;;;17.60;99.90;;;;;;5090059;28;20250;-76
2022/06/27 08:01:06;;;;;;;25.55;18.50;;;17.70;99.90;;;;;;5090811;27;20544;-75
2022/06/27 08:03:44;;;;;;;20.08;16.85;;;17.60;99.90;;;;;;5090747;28;20254;-76
2022/06/27 08:06:21;;;;;;;23.58;17.73;;;17.60;99.90;;;;;;5090765;28;20182;-76
2022/06/27 08:08:50;;;;;;;20.40;18.38;;;17.80;99.90;;;;;;5090676;28;20163;-76
2022/06/27 08:11:18;;;;;;;25.30;21.25;;;18.00;99.90;;;;;;5090658;28;20167;-76
2022/06/27 08:13:45;;;;;;;25.77;21.60;;;17.90;99.90;;;;;;5090523;28;20638;-75
2022/06/27 08:16:14;;;;;;;25.83;22.80;;;18.00;99.90;;;;;;5090472;28;20175;-76
2022/06/27 08:18:42;;;;;;;25.40;21.42;;;18.20;99.90;;;;;;5090457;28;20160;-76
2022/06/27 08:21:08;;;;;;;30.35;22.45;;;18.60;99.90;;;;;;5090572;28;20585;-75
2022/06/27 08:23:36;;;;;;;23.30;19.90;;;18.80;99.90;;;;;;5089181;28;20595;-76
2022/06/27 08:26:04;;;;;;;21.25;19.00;;;19.00;99.90;;;;;;5090379;28;20198;-76
2022/06/27 08:28:30;;;;;;;20.13;18.08;;;19.10;99.90;;;;;;5090253;28;20203;-76
2022/06/27 08:30:57;;;;;;;26.50;17.92;;;19.10;99.90;;;;;;5090333;28;20660;-76
2022/06/27 08:33:23;;;;;;;23.92;18.75;;;19.00;99.90;;;;;;5090259;28;20205;-76
2022/06/27 08:35:50;;;;;;;22.60;18.73;;;19.00;99.90;;;;;;5090185;28;20212;-76
2022/06/27 08:38:17;;;;;;;25.88;19.83;;;18.90;99.90;;;;;;5090094;28;20164;-76
2022/06/27 08:40:43;;;;;;;22.17;18.48;;;18.70;99.90;;;;;;5089961;28;20249;-76
2022/06/27 08:43:12;;;;;;;21.70;19.50;;;18.70;99.90;;;;;;5089948;28;20176;-76
2022/06/27 08:45:38;;;;;;;20.50;18.38;;;18.70;99.90;;;;;;5090030;28;20175;-76
2022/06/27 08:48:07;;;;;;;24.23;18.98;;;18.80;99.90;;;;;;5088612;28;20167;-76
2022/06/27 08:50:34;;;;;;;21.50;18.50;;;18.80;99.90;;;;;;5089946;28;20229;-76
2022/06/27 08:53:00;;;;;;;22.13;18.13;;;18.70;99.90;;;;;;5088529;28;20195;-76
2022/06/27 08:55:26;;;;;;;21.50;18.88;;;18.70;99.90;;;;;;5089816;28;20202;-76
2022/06/27 08:57:51;;;;;;;21.10;18.83;;;18.60;99.90;;;;;;5089733;28;20167;-75
2022/06/27 09:00:22;;;;;;;24.90;20.58;;;18.50;99.90;;;;;;5089652;28;20245;-76
2022/06/27 09:02:48;;;;;;;23.05;19.75;;;18.40;99.90;;;;;;5089777;28;20164;-76
2022/06/27 09:05:21;;;;;;;23.45;20.92;;;18.40;99.90;;;;;;5089717;28;20164;-75
2022/06/27 09:07:52;;;;;;;21.17;18.95;;;18.20;99.90;;;;;;5089712;28;20166;-75
2022/06/27 09:10:32;;;;;;;30.50;23.88;;;18.10;99.90;;;;;;5088386;28;20171;-75
2022/06/27 09:13:06;;;;;;;26.20;22.05;;;18.00;99.90;;;;;;5076122;28;20164;-76
2022/06/27 09:39:30;;;;;;;27.70;21.33;;;18.00;99.90;;;;;;5090712;28;21202;-75
2022/06/27 09:42:08;;;;;;;27.65;21.55;;;17.50;99.90;;;;;;5090801;28;20172;-75
2022/06/27 09:44:38;;;;;;;25.40;21.02;;;17.80;99.90;;;;;;5090816;28;20182;-75
2022/06/27 09:47:20;;;;;;;24.45;20.50;;;17.90;99.90;;;;;;5089523;28;20182;-76
2022/06/27 09:49:56;;;;;;;28.17;18.98;;;18.10;99.90;;;;;;5090705;28;20179;-75
2022/06/27 09:52:23;;;;;;;25.25;19.30;;;18.20;99.90;;;;;;5089420;28;20181;-75
2022/06/27 09:54:52;;;;;;;27.45;18.88;;;18.30;99.90;;;;;;5090564;28;20164;-75
2022/06/27 09:57:19;;;;;;;23.02;20.52;;;18.30;99.90;;;;;;5090474;28;20195;-76
2022/06/27 09:59:48;;;;;;;35.67;20.70;;;18.50;99.90;;;;;;5090520;28;20255;-75
2022/06/27 10:02:17;;;;;;;24.08;20.08;;;18.60;99.90;;;;;;5090400;28;20164;-76
2022/06/27 10:04:47;;;;;;;30.38;18.92;;;18.70;99.90;;;;;;5090457;28;20663;-76
2022/06/27 10:07:15;;;;;;;26.27;20.40;;;18.80;99.90;;;;;;5089042;28;20265;-76
2022/06/27 10:09:41;;;;;;;25.70;19.52;;;19.00;99.90;;;;;;5090684;28;20171;-76
2022/06/27 10:12:23;;;;;;;24.52;19.95;;;19.20;99.90;;;;;;5090255;28;20527;-76
2022/06/27 10:15:09;;;;;;;24.25;20.65;;;19.50;99.90;;;;;;5090185;28;20200;-76
2022/06/27 10:17:37;;;;;;;26.02;20.80;;;19.90;99.90;;;;;;5085940;28;20203;-76
2022/06/27 10:20:10;;;;;;;26.27;19.77;;;20.20;99.90;;;;;;5088826;28;20221;-76
2022/06/27 10:22:36;;;;;;;28.80;22.05;;;20.30;99.90;;;;;;5090080;28;20160;-76
2022/06/27 10:25:26;;;;;;;26.05;21.10;;;20.60;99.90;;;;;;5088625;28;20183;-76
2022/06/27 10:28:10;;;;;;;29.02;23.27;;;20.90;99.90;;;;;;5089999;28;20566;-76
2022/06/27 10:30:54;;;;;;;31.08;25.05;;;20.80;99.90;;;;;;5090022;28;20171;-76
2022/06/27 10:33:23;;;;;;;31.58;24.77;;;20.60;99.90;;;;;;5089864;28;20242;-76
2022/06/27 10:38:53;;;;;;;29.80;24.38;;;20.30;99.90;;;;;;5088944;28;20222;-76
2022/06/27 10:41:18;;;;;;;29.95;24.95;;;20.10;99.90;;;;;;5089744;28;20171;-76
2022/06/27 10:43:53;;;;;;;37.75;26.25;;;19.90;99.90;;;;;;5089701;28;20220;-76
2022/06/27 10:46:18;;;;;;;29.27;24.95;;;19.80;99.90;;;;;;5089682;28;20591;-76
2022/06/27 10:48:55;;;;;;;38.33;26.63;;;19.70;99.90;;;;;;5086572;28;20243;-76
2022/06/27 10:51:33;;;;;;;29.52;23.30;;;19.50;99.90;;;;;;5076001;28;20250;-76
2022/06/27 10:54:04;;;;;;;31.60;23.50;;;19.40;99.90;;;;;;5076092;28;20171;-76
2022/06/27 10:56:45;;;;;;;25.38;21.65;;;19.20;99.90;;;;;;5075935;28;20164;-76
2022/06/27 10:59:16;;;;;;;30.55;22.95;;;19.00;99.90;;;;;;5074595;28;20234;-76
2022/06/27 11:01:50;;;;;;;28.45;22.20;;;18.80;99.90;;;;;;5075867;28;20171;-76
2022/06/27 11:04:29;;;;;;;29.38;22.73;;;18.70;99.90;;;;;;5074410;28;20640;-76
2022/06/27 11:06:59;;;;;;;33.10;24.08;;;18.70;99.90;;;;;;5075700;28;20187;-76
2022/06/27 11:09:44;;;;;;;36.45;25.75;;;18.60;99.90;;;;;;5074763;28;20164;-76
2022/06/27 11:12:15;;;;;;;32.78;24.80;;;18.60;99.90;;;;;;5075736;28;20222;-76
2022/06/27 11:14:48;;;;;;;43.13;27.23;;;18.60;99.90;;;;;;5075630;28;20171;-76
2022/06/27 11:17:33;;;;;;;41.72;30.38;;;18.60;99.90;;;;;;5074225;28;20242;-76
2022/06/27 11:20:25;;;;;;;41.92;30.65;;;18.70;99.90;;;;;;5075472;28;20191;-76
2022/06/27 11:22:58;;;;;;;40.83;29.45;;;18.80;99.90;;;;;;5075210;28;20180;-76
2022/06/27 11:25:27;;;;;;;41.33;30.05;;;18.90;99.90;;;;;;5075413;28;20168;-76
2022/06/27 11:31:57;;;;;;;38.42;29.60;;;19.00;99.90;;;;;;5075337;28;20634;-76
2022/06/27 11:33:35;;;;;;;43.40;29.52;;;19.00;99.90;;;;;;5075098;28;20225;-76
2022/06/27 11:36:02;;;;;;;41.90;29.10;;;19.20;99.90;;;;;;5074148;28;20167;-76
2022/06/27 11:38:40;;;;;;;38.58;26.40;;;19.10;99.90;;;;;;5075004;28;20224;-76
2022/06/27 11:41:09;;;;;;;37.05;25.70;;;18.90;99.90;;;;;;5073917;28;20186;-76
2022/06/27 11:43:53;;;;;;;37.47;26.92;;;19.10;99.90;;;;;;5075135;28;20163;-76
2022/06/27 11:46:23;;;;;;;39.55;26.75;;;19.20;99.90;;;;;;5073773;28;20309;-76
2022/06/27 11:49:09;;;;;;;35.45;25.17;;;19.30;99.90;;;;;;5075111;28;20585;-76
2022/06/27 11:51:37;;;;;;;33.83;24.80;;;19.30;99.90;;;;;;5073711;28;20172;-76
2022/06/27 11:54:09;;;;;;;33.42;24.67;;;19.40;99.90;;;;;;5074868;28;20642;-76
2022/06/27 11:56:40;;;;;;;35.42;25.55;;;19.50;99.90;;;;;;5074920;28;20218;-76
2022/06/27 11:59:08;;;;;;;31.13;24.33;;;19.50;99.90;;;;;;5074678;28;20197;-76
2022/06/27 12:01:58;;;;;;;37.90;25.90;;;19.50;99.90;;;;;;5073748;28;20675;-76
2022/06/27 12:04:27;;;;;;;41.05;27.58;;;19.60;99.90;;;;;;5074424;28;20187;-76
2022/06/27 12:07:06;;;;;;;39.60;26.20;;;19.60;99.90;;;;;;5074667;28;20160;-76
2022/06/27 12:09:50;;;;;;;35.92;25.40;;;19.70;99.90;;;;;;5073260;28;20168;-76
2022/06/27 12:12:29;;;;;;;36.92;25.63;;;19.90;99.90;;;;;;5074500;28;20190;-76
2022/06/27 12:14:55;;;;;;;32.97;26.45;;;20.30;99.90;;;;;;5074498;28;20633;-76
2022/06/27 12:17:23;;;;;;;32.33;24.70;;;20.70;99.90;;;;;;5074326;28;20236;-76
2022/06/27 12:20:01;;;;;;;33.65;25.85;;;20.80;99.90;;;;;;5074210;28;20652;-76
2022/06/27 12:22:27;;;;;;;31.08;24.48;;;21.10;99.90;;;;;;5074354;28;20637;-76
2022/06/27 12:24:53;;;;;;;34.47;25.48;;;21.20;99.90;;;;;;5074318;28;20168;-76
2022/06/27 12:27:18;;;;;;;31.95;23.40;;;21.50;99.90;;;;;;5074204;28;20167;-76
2022/06/27 12:29:44;;;;;;;30.50;23.77;;;21.50;99.90;;;;;;5074112;28;20182;-77
2022/06/27 12:32:09;;;;;;;26.25;21.60;;;21.60;99.90;;;;;;5074012;28;20171;-76
2022/06/27 12:34:35;;;;;;;28.38;23.23;;;21.70;99.90;;;;;;5074060;28;20172;-76
2022/06/27 12:37:00;;;;;;;26.08;23.08;;;21.70;99.90;;;;;;5073799;28;20246;-76
2022/06/27 12:39:28;;;;;;;30.83;23.02;;;21.70;99.90;;;;;;5074037;28;20168;-76
2022/06/27 12:41:54;;;;;;;25.42;22.55;;;21.80;99.90;;;;;;5073873;28;20171;-76
2022/06/27 12:44:19;;;;;;;29.17;22.38;;;21.90;99.90;;;;;;5073904;28;20183;-76
2022/06/27 12:46:45;;;;;;;23.83;20.80;;;21.80;99.90;;;;;;5072533;28;20218;-76
2022/06/27 12:49:12;;;;;;;27.00;21.80;;;21.60;99.90;;;;;;5073636;28;20262;-76
2022/06/27 12:51:38;;;;;;;24.13;19.70;;;21.50;99.90;;;;;;5073773;28;20628;-76
2022/06/27 12:54:04;;;;;;;23.15;19.85;;;21.50;99.90;;;;;;5073721;28;20225;-76
2022/06/27 12:56:29;;;;;;;21.45;19.25;;;21.30;99.90;;;;;;5073727;28;20166;-76
2022/06/27 12:58:55;;;;;;;25.48;19.77;;;21.00;99.90;;;;;;5073579;28;20210;-76
2022/06/27 13:01:21;;;;;;;25.63;20.35;;;20.80;99.90;;;;;;5073556;28;20168;-76
2022/06/27 13:03:47;;;;;;;23.27;19.88;;;20.40;99.90;;;;;;5074106;28;20164;-76
2022/06/27 13:06:12;;;;;;;25.35;18.98;;;20.20;99.90;;;;;;5072317;28;20172;-76
2022/06/27 13:08:38;;;;;;;26.33;21.02;;;19.80;99.90;;;;;;5072161;28;20193;-76
2022/06/27 13:11:04;;;;;;;22.42;19.17;;;19.70;99.90;;;;;;5073566;28;20667;-76
2022/06/27 13:13:30;;;;;;;23.35;20.40;;;19.70;99.90;;;;;;5073248;28;20171;-76
2022/06/27 13:15:56;;;;;;;21.10;18.85;;;19.80;99.90;;;;;;5073286;28;20168;-76
2022/06/27 13:18:22;;;;;;;26.75;20.88;;;19.80;99.90;;;;;;5073367;28;20206;-76
2022/06/27 13:20:47;;;;;;;22.02;19.67;;;19.90;99.90;;;;;;5073333;28;20187;-76
2022/06/27 13:23:13;;;;;;;24.23;18.58;;;20.10;99.90;;;;;;5072181;28;20167;-76
2022/06/27 13:25:39;;;;;;;20.83;18.63;;;20.50;99.90;;;;;;5073374;28;20160;-76
2022/06/27 13:28:05;;;;;;;19.10;17.27;;;20.70;99.90;;;;;;5073411;28;20638;-76
2022/06/27 13:30:31;;;;;;;19.27;17.27;;;20.80;99.90;;;;;;5073352;28;20182;-76
2022/06/27 13:32:56;;;;;;;21.10;18.08;;;20.70;99.90;;;;;;5073321;28;20172;-76
2022/06/27 13:35:22;;;;;;;18.83;16.83;;;20.60;99.90;;;;;;5073274;28;20520;-76
2022/06/27 13:37:48;;;;;;;18.52;16.63;;;20.50;99.90;;;;;;5071699;28;20273;-76
2022/06/27 13:40:14;;;;;;;17.50;15.85;;;20.50;99.90;;;;;;5073253;28;20168;-76
2022/06/27 13:42:39;;;;;;;17.67;15.88;;;20.60;99.90;;;;;;5073176;28;20167;-76
2022/06/27 13:45:06;;;;;;;19.08;15.90;;;20.90;99.90;;;;;;5073039;28;20243;-77
2022/06/27 13:47:32;;;;;;;17.05;15.25;;;21.00;99.90;;;;;;5073072;28;20593;-76
2022/06/27 13:49:58;;;;;;;16.02;14.52;;;21.20;99.90;;;;;;5073095;28;20259;-76
2022/06/27 13:52:24;;;;;;;17.15;15.45;;;21.20;99.90;;;;;;5073024;28;20187;-76
2022/06/27 13:54:50;;;;;;;19.20;14.85;;;21.00;99.90;;;;;;5073041;28;20168;-76
2022/06/27 13:57:16;;;;;;;17.33;15.52;;;20.80;99.90;;;;;;5073016;28;20198;-76
2022/06/27 13:59:42;;;;;;;18.85;16.88;;;20.60;99.90;;;;;;5072981;28;20625;-76
2022/06/27 14:02:09;;;;;;;21.98;17.00;;;20.40;99.90;;;;;;5071730;28;20217;-76
2022/06/27 14:04:35;;;;;;;26.67;17.05;;;20.30;99.90;;;;;;5071744;28;20676;-76
2022/06/27 14:09:45;;;;;;;19.55;17.67;;;20.00;99.90;;;;;;5073260;28;20179;-76
2022/06/27 14:12:11;;;;;;;34.42;19.45;;;20.00;99.90;;;;;;5072858;28;20164;-76
2022/06/27 14:14:36;;;;;;;21.52;17.80;;;20.00;99.90;;;;;;5072779;28;20172;-76
2022/06/27 14:17:03;;;;;;;20.80;18.55;;;20.10;99.90;;;;;;5072787;28;20160;-76
2022/06/27 14:19:28;;;;;;;56.50;21.10;;;20.10;99.90;;;;;;5072775;28;20175;-76
2022/06/27 14:21:54;;;;;;;21.95;17.00;;;20.00;99.90;;;;;;5072733;28;20192;-76
2022/06/27 14:24:20;;;;;;;19.92;17.70;;;20.10;99.90;;;;;;5073760;28;20167;-76
2022/06/27 14:26:45;;;;;;;28.05;18.30;;;20.20;99.90;;;;;;5075220;28;20175;-76
2022/06/27 14:29:11;;;;;;;35.20;20.05;;;20.20;99.90;;;;;;5075181;28;20265;-76
2022/06/27 14:31:37;;;;;;;20.10;18.00;;;20.30;99.90;;;;;;5076394;28;20175;-76
2022/06/27 14:34:02;;;;;;;20.48;18.35;;;20.40;99.90;;;;;;5076422;28;20250;-76
2022/06/27 14:36:28;;;;;;;21.70;18.60;;;20.30;99.90;;;;;;5076275;28;20200;-76
2022/06/27 14:38:54;;;;;;;21.55;17.58;;;20.30;99.90;;;;;;5076054;28;20274;-76
2022/06/27 14:41:20;;;;;;;26.08;19.63;;;20.20;99.90;;;;;;5076193;28;20168;-76
2022/06/27 14:43:45;;;;;;;50.88;21.00;;;20.00;99.90;;;;;;5076219;28;20213;-76
2022/06/27 14:46:11;;;;;;;32.75;18.60;;;19.90;99.90;;;;;;5076087;28;20530;-76
2022/06/27 14:48:37;;;;;;;24.33;19.40;;;19.80;99.90;;;;;;5076077;28;20167;-76
2022/06/27 14:51:03;;;;;;;20.88;17.77;;;19.90;99.90;;;;;;5074811;28;20724;-76
2022/06/27 14:53:28;;;;;;;20.17;17.40;;;19.90;99.90;;;;;;5075984;28;20172;-76
2022/06/27 14:55:55;;;;;;;22.60;16.52;;;20.00;99.90;;;;;;5075925;28;20183;-76
2022/06/27 14:58:21;;;;;;;78.55;22.90;;;20.20;99.90;;;;;;5074341;28;20203;-76
2022/06/27 15:00:46;;;;;;;42.08;18.27;;;20.20;99.90;;;;;;5074624;28;20732;-76
2022/06/27 15:03:12;;;;;;;19.33;17.38;;;20.30;99.90;;;;;;5074595;28;20168;-76
2022/06/27 15:05:38;;;;;;;18.80;16.92;;;20.20;99.90;;;;;;5075842;28;20199;-76
2022/06/27 15:08:05;;;;;;;21.00;17.10;;;20.20;99.90;;;;;;5075801;28;20179;-76
2022/06/27 15:11:35;;;;;;;19.88;16.40;;;20.20;99.90;;;;;;5075762;28;20168;-76
2022/06/27 15:13:16;;;;;;;12.60;8.25;;;20.00;99.90;;;;;;5075520;28;20233;-76
2022/06/27 15:15:41;;;;;;;4.28;3.53;;;19.50;99.90;;;;;;5074337;28;20176;-76
2022/06/27 15:18:07;;;;;;;3.33;2.22;;;18.70;99.90;;;;;;5075443;28;20202;-76
2022/06/27 15:20:32;;;;;;;2.70;1.83;;;17.80;99.90;;;;;;5075543;28;20283;-76
2022/06/27 15:22:59;;;;;;;2.65;1.33;;;17.10;99.90;;;;;;5075527;28;20168;-76
2022/06/27 15:25:24;;;;;;;6.07;1.45;;;16.60;99.90;;;;;;5074309;28;20218;-78
2022/06/27 15:57:33;;;;;;;1.30;1.30;;;14.40;99.90;;;;;;5090827;27;20573;-75
2022/06/27 15:59:59;;;;;;;2.63;1.40;;;14.50;99.90;;;;;;5090893;28;20237;-75
2022/06/27 16:02:25;;;;;;;1.65;1.55;;;14.50;99.90;;;;;;5090889;28;20178;-75
2022/06/27 16:04:50;;;;;;;2.05;1.35;;;14.60;99.90;;;;;;5090758;28;20172;-75
2022/06/27 16:07:16;;;;;;;2.17;1.17;;;14.60;99.90;;;;;;5089505;28;20164;-75
2022/06/27 16:09:41;;;;;;;1.23;1.20;;;14.80;99.90;;;;;;5090728;28;20168;-75
2022/06/27 16:12:08;;;;;;;1.33;1.30;;;15.00;99.90;;;;;;5090685;28;20164;-75
2022/06/27 16:14:33;;;;;;;1.40;1.40;;;15.10;99.90;;;;;;5090628;28;20168;-75
2022/06/27 16:16:59;;;;;;;2.90;1.50;;;15.40;99.90;;;;;;5090492;28;20589;-75
2022/06/27 16:19:25;;;;;;;1.40;1.20;;;15.60;99.90;;;;;;5090502;28;20168;-75
2022/06/27 16:21:51;;;;;;;1.30;1.20;;;15.80;99.90;;;;;;5090520;28;20195;-75
2022/06/27 16:24:16;;;;;;;1.60;1.50;;;15.90;99.90;;;;;;5090677;28;20198;-75
2022/06/27 16:26:42;;;;;;;1.58;1.25;;;16.00;99.90;;;;;;5090374;28;20176;-75
2022/06/27 16:29:08;;;;;;;2.28;1.10;;;16.00;99.90;;;;;;5090342;28;20175;-75
2022/06/27 16:31:40;;;;;;;2.17;1.25;;;16.00;99.90;;;;;;5090315;28;20172;-75
2022/06/27 16:34:11;;;;;;;1.40;1.30;;;15.90;99.90;;;;;;5090229;28;20512;-76
2022/06/27 16:36:36;;;;;;;3.50;1.98;;;15.90;99.90;;;;;;5090116;28;20192;-75
2022/06/27 16:39:03;;;;;;;2.72;1.65;;;15.70;99.90;;;;;;5090144;28;20629;-76
2022/06/27 16:43:13;;;;;;;2.95;2.50;;;15.70;99.90;;;;;;5090165;28;20243;-75
2022/06/27 16:44:14;;;;;;;1.90;1.80;;;15.60;99.90;;;;;;5089882;28;20172;-75
2022/06/27 16:46:39;;;;;;;1.67;1.58;;;15.70;99.90;;;;;;5089944;28;20230;-75
2022/06/27 16:49:05;;;;;;;2.17;1.70;;;15.50;99.90;;;;;;5090046;28;20180;-75
2022/06/27 16:51:31;;;;;;;2.65;2.28;;;15.80;99.90;;;;;;5089885;28;20168;-75
2022/06/27 16:53:58;;;;;;;2.13;2.03;;;15.90;99.90;;;;;;5089831;28;20192;-77
2022/06/27 16:56:24;;;;;;;2.80;2.25;;;16.20;99.90;;;;;;5089612;28;20692;-76
2022/06/27 16:58:49;;;;;;;2.03;1.92;;;16.30;99.90;;;;;;5089704;28;20170;-76
2022/06/27 17:01:15;;;;;;;2.20;2.10;;;16.40;99.90;;;;;;5088335;28;20576;-76
2022/06/27 17:03:40;;;;;;;2.42;2.22;;;16.40;99.90;;;;;;5089646;28;20171;-76
2022/06/27 17:06:06;;;;;;;3.42;2.00;;;16.40;99.90;;;;;;5088356;28;20214;-75
2022/06/27 17:08:32;;;;;;;2.40;2.22;;;16.70;99.90;;;;;;5078332;28;20176;-76
2022/06/27 17:10:57;;;;;;;2.20;2.10;;;16.80;99.90;;;;;;5075994;28;20168;-76
2022/06/27 17:13:23;;;;;;;3.55;2.67;;;17.00;99.90;;;;;;5075950;28;20232;-76
2022/06/27 17:15:48;;;;;;;2.80;2.60;;;17.00;99.90;;;;;;5076349;28;20207;-76
2022/06/27 17:18:14;;;;;;;2.60;2.40;;;17.00;99.90;;;;;;5074649;28;20168;-76
2022/06/27 17:20:40;;;;;;;2.97;2.88;;;16.90;99.90;;;;;;5075851;28;20169;-75
2022/06/27 17:23:06;;;;;;;2.95;2.72;;;17.00;99.90;;;;;;5075847;28;20200;-76
2022/06/27 17:25:32;;;;;;;2.83;2.63;;;17.20;99.90;;;;;;5075755;28;20509;-76
2022/06/27 17:27:58;;;;;;;3.45;2.50;;;17.20;99.90;;;;;;5075700;28;20169;-76
2022/06/27 17:30:23;;;;;;;3.08;2.78;;;17.00;99.90;;;;;;5075679;28;20183;-76
2022/06/27 17:32:49;;;;;;;2.90;2.70;;;16.70;99.90;;;;;;5075675;28;20168;-76
2022/06/27 17:35:15;;;;;;;3.13;2.92;;;16.50;99.90;;;;;;5075574;28;20176;-76
2022/06/27 17:37:41;;;;;;;2.80;2.70;;;16.10;99.90;;;;;;5075563;28;20200;-76
2022/06/27 17:40:08;;;;;;;3.50;3.15;;;16.10;99.90;;;;;;5075530;28;20168;-75
2022/06/27 17:42:34;;;;;;;3.67;3.20;;;15.90;99.90;;;;;;5075346;28;20259;-76
2022/06/27 17:45:00;;;;;;;2.63;2.53;;;16.00;99.90;;;;;;5075455;28;20634;-76
2022/06/27 17:47:25;;;;;;;6.68;3.47;;;16.00;99.90;;;;;;5073904;28;20180;-76
2022/06/27 17:49:51;;;;;;;4.75;3.30;;;16.10;99.90;;;;;;5073948;28;20172;-76
2022/06/27 17:52:17;;;;;;;3.38;3.17;;;16.30;99.90;;;;;;5075175;28;20253;-76
2022/06/27 17:54:43;;;;;;;3.50;3.20;;;16.50;99.90;;;;;;5074015;28;20172;-76
2022/06/27 17:57:08;;;;;;;3.42;3.22;;;16.70;99.90;;;;;;5074908;28;20224;-76
2022/06/27 17:59:34;;;;;;;3.88;3.60;;;16.60;99.90;;;;;;5075145;28;20507;-76
2022/06/27 18:02:00;;;;;;;3.70;3.40;;;16.70;99.90;;;;;;5075097;28;20199;-76
2022/06/27 18:04:26;;;;;;;5.40;4.07;;;16.60;99.90;;;;;;5074867;28;20183;-76
2022/06/27 18:06:52;;;;;;;5.55;4.68;;;16.60;99.90;;;;;;5075015;28;20173;-76
2022/06/27 18:09:20;;;;;;;4.13;3.83;;;16.70;99.90;;;;;;5074959;28;20526;-76
2022/06/27 18:11:47;;;;;;;4.85;4.40;;;16.40;99.90;;;;;;5074928;28;20187;-76
2022/06/27 18:14:13;;;;;;;4.45;4.15;;;16.40;99.90;;;;;;5074815;28;20176;-75
2022/06/27 18:16:38;;;;;;;4.90;4.65;;;16.30;99.90;;;;;;5074911;28;20211;-77
2022/06/27 18:19:04;;;;;;;5.00;4.45;;;16.60;99.90;;;;;;5073806;28;20201;-76
2022/06/27 18:21:30;;;;;;;4.28;4.00;;;16.60;99.90;;;;;;5074739;28;20200;-76
2022/06/27 18:23:55;;;;;;;4.93;4.63;;;16.60;99.90;;;;;;5074665;28;20527;-76
2022/06/27 18:26:21;;;;;;;5.05;4.55;;;16.70;99.90;;;;;;5074572;28;20172;-76
2022/06/27 18:28:47;;;;;;;4.40;4.10;;;16.80;99.90;;;;;;5073193;28;20599;-75
2022/06/27 18:31:13;;;;;;;4.22;3.92;;;17.20;99.90;;;;;;5074481;28;20168;-75
2022/06/27 18:33:39;;;;;;;4.80;4.38;;;17.60;99.90;;;;;;5073036;28;20176;-77
2022/06/27 18:36:06;;;;;;;4.53;4.32;;;17.60;99.90;;;;;;5074265;28;20549;-75
2022/06/27 18:38:32;;;;;;;5.25;4.82;;;17.10;99.90;;;;;;5074373;28;20164;-76
2022/06/27 18:40:58;;;;;;;5.22;4.93;;;16.90;99.90;;;;;;5074157;28;20184;-76
2022/06/27 18:43:23;;;;;;;7.25;6.63;;;16.80;99.90;;;;;;5072824;28;20223;-76
2022/06/27 18:45:49;;;;;;;5.32;5.03;;;16.80;99.90;;;;;;5074076;28;20256;-75
2022/06/27 18:48:18;;;;;;;6.10;5.70;;;16.70;99.90;;;;;;5073942;28;20174;-75
2022/06/27 18:50:44;;;;;;;6.22;5.68;;;16.90;99.90;;;;;;5073978;28;20255;-76
2022/06/27 18:53:10;;;;;;;5.40;5.10;;;17.20;99.90;;;;;;5073867;28;20192;-75
2022/06/27 18:55:37;;;;;;;7.53;4.57;;;17.80;99.90;;;;;;5073549;28;20211;-78
2022/06/27 18:58:03;;;;;;;5.07;4.65;;;18.30;99.90;;;;;;5072616;28;20176;-76
2022/06/27 19:00:29;;;;;;;4.90;4.47;;;18.20;99.90;;;;;;5072546;28;20191;-77
2022/06/27 19:02:55;;;;;;;4.38;4.15;;;18.30;99.90;;;;;;5073740;28;20172;-76
2022/06/27 19:05:21;;;;;;;4.35;4.15;;;18.30;99.90;;;;;;5073732;28;20167;-76
2022/06/27 19:07:47;;;;;;;5.40;4.85;;;18.00;99.90;;;;;;5073605;28;20529;-75
2022/06/27 19:10:12;;;;;;;7.32;5.00;;;17.70;99.90;;;;;;5073616;28;20246;-76
2022/06/27 19:12:39;;;;;;;5.10;4.30;;;17.60;99.90;;;;;;5073668;28;20684;-76
2022/06/27 19:15:06;;;;;;;4.57;4.30;;;17.60;99.90;;;;;;5072246;28;20199;-75
2022/06/27 19:17:32;;;;;;;4.65;4.35;;;17.50;99.90;;;;;;5073338;28;20200;-76
2022/06/27 19:19:58;;;;;;;5.03;4.63;;;17.50;99.90;;;;;;5073300;28;20180;-76
2022/06/27 19:22:25;;;;;;;4.72;4.35;;;17.20;99.90;;;;;;5073344;28;20684;-75
2022/06/27 19:24:52;;;;;;;5.40;4.90;;;17.10;99.90;;;;;;5073320;28;20506;-76
2022/06/27 19:27:17;;;;;;;5.35;4.97;;;17.00;99.90;;;;;;5073313;28;20353;-76
2022/06/27 19:29:43;;;;;;;5.50;4.43;;;16.90;99.90;;;;;;5071969;28;20177;-76
2022/06/27 19:32:09;;;;;;;8.48;4.95;;;17.00;99.90;;;;;;5072969;28;20164;-76
2022/06/27 19:34:34;;;;;;;7.70;4.65;;;17.00;99.90;;;;;;5073206;28;20201;-76
2022/06/27 19:37:00;;;;;;;4.82;4.50;;;16.70;99.90;;;;;;5071916;28;20286;-76
2022/06/27 19:39:26;;;;;;;5.20;4.72;;;16.40;99.90;;;;;;5073151;28;20274;-75
2022/06/27 19:41:52;;;;;;;8.05;5.18;;;16.30;99.90;;;;;;5073047;28;20164;-75
